Airfield :
LOGIN :

Register | Disclaimer

   EN    FR    IT 

 










Legend :    VFR   Marginal VFR   IFR   Intensive IFR   Very Intensive IFR
Visi :
Ceiling :
>= 8 km
>= 3000ft
5 to 8 km
1000 to 3000 ft
1500m to 5 km
500 to 1000 ft
800 to 1500m
200 to 500 ft
< 800m
< 200 ft
Symbols :   Thunderstorms  Fog  Heavy snow  Heavy precipitations  Wind > 20 kt
SIGMETs :     Misc.  Thunderstorms  Icing  Turbulence  Mountain Waves  Volcanic Ashes






- Airport Elevation : 53 ft
- IATA code : AGP


LEMG - Malaga

CURRENT METAR :
  • 011200Z 03005KT 9999 FEW015 BKN046 13/09 Q1013 NOSIG

EXPIRED METARs :
  • 011130Z 32004KT 290V360 9999 FEW018 BKN045 13/10 Q1014 NOSIG
  • 011100Z VRB01KT 9999 FEW010 BKN030 12/10 Q1014 BECMG 10009KT
  • 011030Z 20003KT 170V230 9999 FEW015 BKN027 12/10 Q1014 BECMG 10009KT
  • 011000Z VRB02KT 5000 BR FEW003 BKN030 12/11 Q1014 BECMG 10009KT
  • 010930Z 28004KT 230V310 4500 BR FEW001 BKN034 11/11 Q1014 BECMG 10009KT

TAF TAF LEMG
Valid from the 01 at 12:00 until the 02 at 12:00 UTC


011100Z 0112/0212 10009KT 9999 FEW015 BKN030 TX17/0212Z TN09/0206Z
PROB40
TEMPO 0112/0118 4000 RA BR BKN014
BECMG 0116/0118 VRB02KT
BECMG 0121/0123 29006KT
PROB30
TEMPO 0121/0206 4000 BR BKN010



MET'MAP, your aeronautical weather chart ! - Copyright ORBIFLY December 2007 - Disclaimer

ORBIFLY MET'MAP TEAM :

Programming & Development : Alexandra Zaïnal
Original concept : Baudouin d'Aumeries
Technical & hardware support : Manuel Goepfert
Assistance : Marc-Olivier Méhu




SOURCES & CREDITS :

   NOAA